LOT6PK LFLL-LEBL
Flight info
| Callsign | LOT6PK |
|---|---|
| Flight time | 1h 6m |
| Altitude | 29000 |
| Route | ROMAM A6 MTL DCT DIVKO DCT NILDU DCT BISBA |
| Aircraft | A320/M-SDE3FGHIRWY/LB1 |
Departure
| Time | 2026-05-05 19:49 |
|---|---|
| Airport | Lyon Saint-Exupéry Airport (LFLL) |
Arrival
| Time | 2026-05-05 20:56 |
|---|---|
| Airport | Josep Tarradellas Barcelona-El Prat Airport (LEBL) |
| Time | Latitude | Longitude | Altitude | Speed | Heading |
|---|---|---|---|---|---|
| 2026-05-05 18:53 | 45.72145 | 5.08170 | 803 ft | 0 kts | 272° |
| 2026-05-05 19:29 | 45.72144 | 5.08189 | 802 ft | 4 kts | 271° |
| 2026-05-05 19:30 | 45.72144 | 5.08228 | 802 ft | 4 kts | 271° |
| 2026-05-05 19:30 | 45.72143 | 5.08259 | 802 ft | 4 kts | 283° |
| 2026-05-05 19:30 | 45.72131 | 5.08289 | 802 ft | 4 kts | 336° |
| 2026-05-05 19:30 | 45.72115 | 5.08293 | 802 ft | 0 kts | 19° |
| 2026-05-05 19:36 | 45.72164 | 5.08313 | 802 ft | 13 kts | 11° |
| 2026-05-05 19:36 | 45.72244 | 5.08334 | 802 ft | 11 kts | 40° |
| 2026-05-05 19:37 | 45.72286 | 5.08409 | 802 ft | 10 kts | 24° |
| 2026-05-05 19:37 | 45.72407 | 5.08404 | 802 ft | 21 kts | 354° |
| 2026-05-05 19:37 | 45.72544 | 5.08386 | 802 ft | 19 kts | 355° |
| 2026-05-05 19:37 | 45.72668 | 5.08373 | 802 ft | 17 kts | 355° |
| 2026-05-05 19:38 | 45.72818 | 5.08356 | 802 ft | 27 kts | 355° |
| 2026-05-05 19:38 | 45.73032 | 5.08332 | 802 ft | 24 kts | 356° |
| 2026-05-05 19:38 | 45.73135 | 5.08316 | 802 ft | 13 kts | 354° |
| 2026-05-05 19:38 | 45.73231 | 5.08304 | 802 ft | 16 kts | 355° |
| 2026-05-05 19:39 | 45.73381 | 5.08287 | 802 ft | 19 kts | 355° |
| 2026-05-05 19:39 | 45.73493 | 5.08273 | 802 ft | 14 kts | 354° |
| 2026-05-05 19:39 | 45.73583 | 5.08261 | 802 ft | 12 kts | 355° |
| 2026-05-05 19:39 | 45.73654 | 5.08257 | 802 ft | 2 kts | 11° |
| 2026-05-05 19:40 | 45.73654 | 5.08258 | 802 ft | 0 kts | 14° |
| 2026-05-05 19:40 | 45.73656 | 5.08259 | 802 ft | 2 kts | 17° |
| 2026-05-05 19:40 | 45.73668 | 5.08264 | 802 ft | 1 kts | 17° |
| 2026-05-05 19:41 | 45.73678 | 5.08269 | 802 ft | 4 kts | 20° |
| 2026-05-05 19:41 | 45.73696 | 5.08284 | 802 ft | 3 kts | 34° |
| 2026-05-05 19:41 | 45.73707 | 5.08297 | 802 ft | 2 kts | 43° |
| 2026-05-05 19:41 | 45.73725 | 5.08345 | 802 ft | 1 kts | 72° |
| 2026-05-05 19:42 | 45.73727 | 5.08363 | 802 ft | 4 kts | 84° |
| 2026-05-05 19:42 | 45.73716 | 5.08447 | 801 ft | 12 kts | 106° |
| 2026-05-05 19:42 | 45.73698 | 5.08539 | 799 ft | 4 kts | 106° |
| 2026-05-05 19:42 | 45.73696 | 5.08550 | 798 ft | 0 kts | 105° |
| 2026-05-05 19:47 | 45.73688 | 5.08590 | 796 ft | 11 kts | 106° |
| 2026-05-05 19:47 | 45.73644 | 5.08708 | 792 ft | 15 kts | 146° |
| 2026-05-05 19:48 | 45.73587 | 5.08725 | 793 ft | 0 kts | 174° |
| 2026-05-05 19:48 | 45.73571 | 5.08727 | 793 ft | 14 kts | 174° |
| 2026-05-05 19:49 | 45.73219 | 5.08772 | 799 ft | 85 kts | 174° |
| 2026-05-05 19:49 | 45.72728 | 5.08835 | 798 ft | 123 kts | 175° |
| 2026-05-05 19:49 | 45.71354 | 5.09004 | 1032 ft | 162 kts | 175° |
| 2026-05-05 19:49 | 45.70234 | 5.09145 | 1721 ft | 162 kts | 175° |
| 2026-05-05 19:50 | 45.69106 | 5.09295 | 2354 ft | 164 kts | 177° |
| 2026-05-05 19:50 | 45.67932 | 5.09443 | 2794 ft | 178 kts | 178° |
| 2026-05-05 19:50 | 45.66618 | 5.09589 | 3040 ft | 203 kts | 178° |
| 2026-05-05 19:50 | 45.65124 | 5.09750 | 3317 ft | 228 kts | 178° |
| 2026-05-05 19:51 | 45.63495 | 5.09950 | 4033 ft | 236 kts | 176° |
| 2026-05-05 19:51 | 45.61843 | 5.10166 | 4820 ft | 245 kts | 177° |
| 2026-05-05 19:51 | 45.60072 | 5.10375 | 5309 ft | 265 kts | 177° |
| 2026-05-05 19:51 | 45.58185 | 5.10590 | 6001 ft | 274 kts | 177° |
| 2026-05-05 19:52 | 45.56302 | 5.10814 | 7089 ft | 270 kts | 176° |
| 2026-05-05 19:52 | 45.54429 | 5.11040 | 8028 ft | 271 kts | 176° |
| 2026-05-05 19:52 | 45.52536 | 5.11269 | 8909 ft | 274 kts | 177° |
| 2026-05-05 19:52 | 45.50650 | 5.11498 | 9805 ft | 277 kts | 176° |
| 2026-05-05 19:53 | 45.48691 | 5.11737 | 10331 ft | 292 kts | 177° |
| 2026-05-05 19:53 | 45.46582 | 5.11990 | 10593 ft | 315 kts | 176° |
| 2026-05-05 19:53 | 45.44359 | 5.12254 | 11147 ft | 326 kts | 176° |
| 2026-05-05 19:53 | 45.42075 | 5.12527 | 11875 ft | 331 kts | 176° |
| 2026-05-05 19:54 | 45.39767 | 5.12808 | 12625 ft | 335 kts | 176° |
| 2026-05-05 19:54 | 45.37426 | 5.13095 | 13372 ft | 339 kts | 176° |
| 2026-05-05 19:54 | 45.35066 | 5.13383 | 13818 ft | 343 kts | 176° |
| 2026-05-05 19:54 | 45.32689 | 5.13670 | 13916 ft | 342 kts | 177° |
| 2026-05-05 19:55 | 45.30316 | 5.13954 | 13936 ft | 342 kts | 177° |
| 2026-05-05 19:55 | 45.27944 | 5.14236 | 13937 ft | 342 kts | 177° |
| 2026-05-05 19:55 | 45.25573 | 5.14515 | 13935 ft | 342 kts | 177° |
| 2026-05-05 19:55 | 45.23202 | 5.14798 | 13933 ft | 342 kts | 177° |
| 2026-05-05 19:56 | 45.20865 | 5.15076 | 13930 ft | 341 kts | 177° |
| 2026-05-05 19:56 | 45.18501 | 5.15359 | 13929 ft | 341 kts | 177° |
| 2026-05-05 19:56 | 45.16140 | 5.15641 | 13927 ft | 341 kts | 177° |
| 2026-05-05 19:56 | 45.13768 | 5.15925 | 13919 ft | 341 kts | 177° |
| 2026-05-05 19:57 | 45.11410 | 5.15953 | 13918 ft | 339 kts | 188° |
| 2026-05-05 19:57 | 45.09886 | 5.15502 | 13920 ft | 337 kts | 199° |
| 2026-05-05 19:57 | 45.07016 | 5.13625 | 14717 ft | 341 kts | 206° |
| 2026-05-05 19:57 | 45.04879 | 5.12147 | 15469 ft | 342 kts | 206° |
| 2026-05-05 19:58 | 45.03465 | 5.11171 | 15946 ft | 343 kts | 206° |
| 2026-05-05 19:58 | 45.01313 | 5.09685 | 16648 ft | 344 kts | 206° |
| 2026-05-05 19:58 | 44.98448 | 5.07699 | 17560 ft | 347 kts | 206° |
| 2026-05-05 19:58 | 44.96980 | 5.06678 | 18023 ft | 349 kts | 206° |
| 2026-05-05 19:59 | 44.94803 | 5.05160 | 18637 ft | 351 kts | 206° |
| 2026-05-05 19:59 | 44.92608 | 5.03629 | 19233 ft | 352 kts | 206° |
| 2026-05-05 19:59 | 44.90404 | 5.02092 | 19834 ft | 354 kts | 206° |
| 2026-05-05 19:59 | 44.88186 | 5.00548 | 20437 ft | 356 kts | 206° |
| 2026-05-05 20:00 | 44.85954 | 4.98998 | 21018 ft | 359 kts | 206° |
| 2026-05-05 20:00 | 44.83706 | 4.97438 | 21603 ft | 361 kts | 206° |
| 2026-05-05 20:00 | 44.81445 | 4.95870 | 22168 ft | 364 kts | 206° |
| 2026-05-05 20:00 | 44.79164 | 4.94292 | 22724 ft | 366 kts | 206° |
| 2026-05-05 20:01 | 44.76867 | 4.92708 | 23257 ft | 369 kts | 206° |
| 2026-05-05 20:01 | 44.74580 | 4.91129 | 23723 ft | 372 kts | 206° |
| 2026-05-05 20:01 | 44.72249 | 4.89519 | 24159 ft | 374 kts | 206° |
| 2026-05-05 20:01 | 44.69909 | 4.87906 | 24605 ft | 376 kts | 206° |
| 2026-05-05 20:02 | 44.67553 | 4.86285 | 25039 ft | 377 kts | 206° |
| 2026-05-05 20:02 | 44.65196 | 4.84664 | 25484 ft | 378 kts | 206° |
| 2026-05-05 20:02 | 44.62828 | 4.83032 | 25907 ft | 380 kts | 206° |
| 2026-05-05 20:02 | 44.60452 | 4.81392 | 26317 ft | 381 kts | 206° |
| 2026-05-05 20:03 | 44.58068 | 4.79767 | 26743 ft | 382 kts | 204° |
| 2026-05-05 20:03 | 44.55549 | 4.78554 | 27149 ft | 384 kts | 195° |
| 2026-05-05 20:03 | 44.52896 | 4.78006 | 27542 ft | 388 kts | 185° |
| 2026-05-05 20:03 | 44.50185 | 4.77971 | 27930 ft | 391 kts | 183° |
| 2026-05-05 20:04 | 44.47458 | 4.77970 | 28318 ft | 392 kts | 183° |
| 2026-05-05 20:04 | 44.44723 | 4.77963 | 28682 ft | 393 kts | 183° |
| 2026-05-05 20:04 | 44.41983 | 4.77956 | 28907 ft | 393 kts | 184° |
| 2026-05-05 20:04 | 44.39296 | 4.77954 | 28932 ft | 380 kts | 184° |
| 2026-05-05 20:05 | 44.36712 | 4.77952 | 28932 ft | 374 kts | 184° |
| 2026-05-05 20:05 | 44.31517 | 4.77943 | 28939 ft | 372 kts | 184° |
| 2026-05-05 20:06 | 44.26340 | 4.77933 | 28944 ft | 372 kts | 184° |
| 2026-05-05 20:06 | 44.21157 | 4.77925 | 28941 ft | 372 kts | 184° |
| 2026-05-05 20:07 | 44.15987 | 4.77915 | 28945 ft | 371 kts | 184° |
| 2026-05-05 20:07 | 44.10838 | 4.77705 | 28936 ft | 366 kts | 194° |
| 2026-05-05 20:08 | 44.06069 | 4.75412 | 28940 ft | 362 kts | 202° |
| 2026-05-05 20:08 | 44.01363 | 4.72916 | 28929 ft | 362 kts | 203° |
| 2026-05-05 20:09 | 43.96695 | 4.70436 | 28903 ft | 361 kts | 203° |
| 2026-05-05 20:09 | 43.91969 | 4.67935 | 28908 ft | 361 kts | 203° |
| 2026-05-05 20:10 | 43.87307 | 4.65477 | 28908 ft | 360 kts | 203° |
| 2026-05-05 20:10 | 43.82623 | 4.63007 | 28921 ft | 360 kts | 203° |
| 2026-05-05 20:11 | 43.77948 | 4.60548 | 28932 ft | 359 kts | 203° |
| 2026-05-05 20:11 | 43.73273 | 4.58099 | 28928 ft | 359 kts | 203° |
| 2026-05-05 20:12 | 43.68604 | 4.55655 | 28933 ft | 358 kts | 203° |
| 2026-05-05 20:12 | 43.66234 | 4.54416 | 28942 ft | 369 kts | 203° |
| 2026-05-05 20:12 | 43.63796 | 4.53141 | 28944 ft | 380 kts | 203° |
| 2026-05-05 20:13 | 43.58740 | 4.50502 | 28939 ft | 397 kts | 202° |
| 2026-05-05 20:13 | 43.53499 | 4.47772 | 28940 ft | 407 kts | 202° |
| 2026-05-05 20:14 | 43.48181 | 4.45012 | 28932 ft | 409 kts | 202° |
| 2026-05-05 20:14 | 43.42860 | 4.42250 | 28928 ft | 409 kts | 202° |
| 2026-05-05 20:15 | 43.37536 | 4.39483 | 28926 ft | 409 kts | 202° |
| 2026-05-05 20:15 | 43.32249 | 4.36741 | 28917 ft | 409 kts | 202° |
| 2026-05-05 20:16 | 43.26931 | 4.33998 | 28909 ft | 408 kts | 202° |
| 2026-05-05 20:16 | 43.21608 | 4.31261 | 28904 ft | 408 kts | 202° |
| 2026-05-05 20:17 | 43.16283 | 4.28522 | 28900 ft | 409 kts | 202° |
| 2026-05-05 20:17 | 43.10958 | 4.25799 | 28897 ft | 409 kts | 202° |
| 2026-05-05 20:18 | 43.05628 | 4.23065 | 28893 ft | 409 kts | 203° |
| 2026-05-05 20:18 | 43.00301 | 4.20337 | 28896 ft | 409 kts | 203° |
| 2026-05-05 20:19 | 42.94971 | 4.17617 | 28893 ft | 409 kts | 203° |
| 2026-05-05 20:19 | 42.89644 | 4.14895 | 28896 ft | 409 kts | 203° |
| 2026-05-05 20:20 | 42.84348 | 4.12205 | 28892 ft | 409 kts | 203° |
| 2026-05-05 20:20 | 42.79016 | 4.09503 | 28893 ft | 409 kts | 203° |
| 2026-05-05 20:21 | 42.73682 | 4.06797 | 28896 ft | 409 kts | 204° |
| 2026-05-05 20:21 | 42.68349 | 4.04093 | 28888 ft | 409 kts | 204° |
| 2026-05-05 20:22 | 42.63011 | 4.01397 | 28888 ft | 409 kts | 204° |
| 2026-05-05 20:22 | 42.57673 | 3.98713 | 28885 ft | 409 kts | 204° |
| 2026-05-05 20:23 | 42.52340 | 3.96026 | 28892 ft | 408 kts | 204° |
| 2026-05-05 20:23 | 42.47012 | 3.93349 | 28888 ft | 408 kts | 204° |
| 2026-05-05 20:24 | 42.41724 | 3.90708 | 28886 ft | 408 kts | 204° |
| 2026-05-05 20:24 | 42.36408 | 3.88051 | 28902 ft | 403 kts | 205° |
| 2026-05-05 20:24 | 42.33846 | 3.86778 | 28912 ft | 381 kts | 205° |
| 2026-05-05 20:25 | 42.31416 | 3.85580 | 28915 ft | 363 kts | 205° |
| 2026-05-05 20:25 | 42.26807 | 3.83174 | 28916 ft | 348 kts | 212° |
| 2026-05-05 20:26 | 42.22897 | 3.79207 | 28918 ft | 360 kts | 223° |
| 2026-05-05 20:26 | 42.19086 | 3.74734 | 28920 ft | 364 kts | 223° |
| 2026-05-05 20:27 | 42.15250 | 3.70259 | 28916 ft | 365 kts | 223° |
| 2026-05-05 20:27 | 42.13329 | 3.68028 | 28679 ft | 363 kts | 223° |
| 2026-05-05 20:27 | 42.11442 | 3.65838 | 27908 ft | 362 kts | 223° |
| 2026-05-05 20:27 | 42.09585 | 3.63571 | 27191 ft | 359 kts | 228° |
| 2026-05-05 20:28 | 42.08119 | 3.60875 | 26528 ft | 357 kts | 239° |
| 2026-05-05 20:28 | 42.07069 | 3.57851 | 25866 ft | 356 kts | 243° |
| 2026-05-05 20:28 | 42.06066 | 3.54798 | 25210 ft | 355 kts | 243° |
| 2026-05-05 20:28 | 42.05067 | 3.51765 | 24577 ft | 354 kts | 243° |
| 2026-05-05 20:29 | 42.04067 | 3.48743 | 23965 ft | 353 kts | 243° |
| 2026-05-05 20:29 | 42.03066 | 3.45735 | 23344 ft | 352 kts | 243° |
| 2026-05-05 20:29 | 42.02068 | 3.42739 | 22657 ft | 351 kts | 243° |
| 2026-05-05 20:29 | 42.01066 | 3.39750 | 22018 ft | 349 kts | 241° |
| 2026-05-05 20:30 | 41.99831 | 3.36956 | 21419 ft | 347 kts | 236° |
| 2026-05-05 20:30 | 41.98545 | 3.34211 | 20824 ft | 346 kts | 236° |
| 2026-05-05 20:30 | 41.97265 | 3.31476 | 20243 ft | 346 kts | 236° |
| 2026-05-05 20:30 | 41.95987 | 3.28742 | 19669 ft | 345 kts | 236° |
| 2026-05-05 20:31 | 41.94715 | 3.26015 | 19082 ft | 343 kts | 236° |
| 2026-05-05 20:31 | 41.93462 | 3.23333 | 18374 ft | 343 kts | 236° |
| 2026-05-05 20:31 | 41.92191 | 3.20621 | 17592 ft | 343 kts | 236° |
| 2026-05-05 20:31 | 41.90924 | 3.17919 | 16853 ft | 341 kts | 237° |
| 2026-05-05 20:32 | 41.89662 | 3.15233 | 16158 ft | 339 kts | 237° |
| 2026-05-05 20:32 | 41.88405 | 3.12561 | 15475 ft | 337 kts | 237° |
| 2026-05-05 20:32 | 41.87161 | 3.09917 | 14754 ft | 333 kts | 237° |
| 2026-05-05 20:32 | 41.85928 | 3.07296 | 13920 ft | 330 kts | 238° |
| 2026-05-05 20:33 | 41.84712 | 3.04720 | 13151 ft | 322 kts | 238° |
| 2026-05-05 20:33 | 41.83541 | 3.02245 | 12714 ft | 306 kts | 238° |
| 2026-05-05 20:33 | 41.82428 | 2.99887 | 12329 ft | 295 kts | 238° |
| 2026-05-05 20:33 | 41.81334 | 2.97566 | 11938 ft | 294 kts | 238° |
| 2026-05-05 20:34 | 41.80245 | 2.95260 | 11538 ft | 292 kts | 238° |
| 2026-05-05 20:34 | 41.79159 | 2.92963 | 11153 ft | 291 kts | 238° |
| 2026-05-05 20:34 | 41.78081 | 2.90684 | 10748 ft | 289 kts | 238° |
| 2026-05-05 20:34 | 41.77017 | 2.88441 | 10360 ft | 288 kts | 238° |
| 2026-05-05 20:35 | 41.75949 | 2.86191 | 10086 ft | 283 kts | 238° |
| 2026-05-05 20:35 | 41.74909 | 2.83999 | 9945 ft | 276 kts | 238° |
| 2026-05-05 20:35 | 41.73881 | 2.81836 | 9921 ft | 275 kts | 238° |
| 2026-05-05 20:35 | 41.72818 | 2.79702 | 9807 ft | 275 kts | 236° |
| 2026-05-05 20:36 | 41.71708 | 2.77616 | 9666 ft | 275 kts | 235° |
| 2026-05-05 20:36 | 41.70582 | 2.75551 | 9525 ft | 275 kts | 235° |
| 2026-05-05 20:36 | 41.69454 | 2.73493 | 9389 ft | 274 kts | 235° |
| 2026-05-05 20:36 | 41.68328 | 2.71438 | 9256 ft | 274 kts | 235° |
| 2026-05-05 20:37 | 41.67206 | 2.69381 | 9123 ft | 273 kts | 235° |
| 2026-05-05 20:37 | 41.66466 | 2.68020 | 9035 ft | 273 kts | 235° |
| 2026-05-05 20:37 | 41.64975 | 2.65273 | 8857 ft | 273 kts | 235° |
| 2026-05-05 20:37 | 41.63972 | 2.63135 | 8725 ft | 271 kts | 246° |
| 2026-05-05 20:38 | 41.63333 | 2.60770 | 8592 ft | 270 kts | 252° |
| 2026-05-05 20:38 | 41.62749 | 2.58390 | 8460 ft | 269 kts | 252° |
| 2026-05-05 20:38 | 41.62158 | 2.56011 | 8328 ft | 269 kts | 252° |
| 2026-05-05 20:38 | 41.61575 | 2.53673 | 8200 ft | 269 kts | 252° |
| 2026-05-05 20:39 | 41.60983 | 2.51307 | 8071 ft | 269 kts | 252° |
| 2026-05-05 20:39 | 41.60391 | 2.48946 | 7941 ft | 268 kts | 252° |
| 2026-05-05 20:39 | 41.59800 | 2.46583 | 7810 ft | 267 kts | 252° |
| 2026-05-05 20:39 | 41.59210 | 2.44230 | 7688 ft | 267 kts | 252° |
| 2026-05-05 20:40 | 41.58618 | 2.41880 | 7549 ft | 267 kts | 252° |
| 2026-05-05 20:40 | 41.58028 | 2.39529 | 7429 ft | 266 kts | 252° |
| 2026-05-05 20:40 | 41.57443 | 2.37186 | 7298 ft | 266 kts | 252° |
| 2026-05-05 20:40 | 41.56669 | 2.34952 | 7169 ft | 266 kts | 239° |
| 2026-05-05 20:41 | 41.55687 | 2.32853 | 7028 ft | 266 kts | 239° |
| 2026-05-05 20:41 | 41.54705 | 2.30764 | 6888 ft | 265 kts | 239° |
| 2026-05-05 20:41 | 41.53604 | 2.28800 | 6750 ft | 266 kts | 224° |
| 2026-05-05 20:41 | 41.52000 | 2.27573 | 6611 ft | 270 kts | 198° |
| 2026-05-05 20:42 | 41.50144 | 2.27399 | 6453 ft | 275 kts | 173° |
| 2026-05-05 20:42 | 41.48339 | 2.28292 | 6328 ft | 280 kts | 152° |
| 2026-05-05 20:42 | 41.46871 | 2.30002 | 6171 ft | 284 kts | 126° |
| 2026-05-05 20:42 | 41.46131 | 2.32428 | 6022 ft | 286 kts | 97° |
| 2026-05-05 20:43 | 41.46361 | 2.35026 | 5862 ft | 284 kts | 68° |
| 2026-05-05 20:43 | 41.47156 | 2.37435 | 5530 ft | 283 kts | 64° |
| 2026-05-05 20:43 | 41.47971 | 2.39805 | 5272 ft | 280 kts | 64° |
| 2026-05-05 20:43 | 41.48791 | 2.42174 | 5145 ft | 282 kts | 64° |
| 2026-05-05 20:44 | 41.49610 | 2.44543 | 5016 ft | 281 kts | 64° |
| 2026-05-05 20:44 | 41.50426 | 2.46910 | 4895 ft | 281 kts | 64° |
| 2026-05-05 20:44 | 41.51238 | 2.49275 | 4768 ft | 280 kts | 64° |
| 2026-05-05 20:44 | 41.52043 | 2.51635 | 4641 ft | 279 kts | 64° |
| 2026-05-05 20:45 | 41.53641 | 2.56309 | 4379 ft | 278 kts | 64° |
| 2026-05-05 20:45 | 41.54443 | 2.58651 | 4249 ft | 277 kts | 64° |
| 2026-05-05 20:45 | 41.55101 | 2.61058 | 4118 ft | 277 kts | 79° |
| 2026-05-05 20:46 | 41.55058 | 2.63615 | 3991 ft | 276 kts | 104° |
| 2026-05-05 20:46 | 41.54246 | 2.65915 | 3859 ft | 275 kts | 129° |
| 2026-05-05 20:46 | 41.52844 | 2.67603 | 3733 ft | 272 kts | 154° |
| 2026-05-05 20:46 | 41.51054 | 2.68241 | 3607 ft | 265 kts | 182° |
| 2026-05-05 20:47 | 41.49228 | 2.68002 | 3479 ft | 263 kts | 199° |
| 2026-05-05 20:47 | 41.47688 | 2.66805 | 3358 ft | 256 kts | 228° |
| 2026-05-05 20:47 | 41.46630 | 2.64909 | 3228 ft | 255 kts | 239° |
| 2026-05-05 20:47 | 41.45749 | 2.62897 | 3111 ft | 253 kts | 249° |
| 2026-05-05 20:48 | 41.45344 | 2.60630 | 2975 ft | 252 kts | 262° |
| 2026-05-05 20:48 | 41.45070 | 2.58329 | 2862 ft | 251 kts | 262° |
| 2026-05-05 20:48 | 41.44801 | 2.56027 | 2734 ft | 251 kts | 262° |
| 2026-05-05 20:48 | 41.44535 | 2.53728 | 2611 ft | 250 kts | 263° |
| 2026-05-05 20:49 | 41.44268 | 2.51437 | 2509 ft | 251 kts | 261° |
| 2026-05-05 20:49 | 41.43773 | 2.49210 | 2508 ft | 252 kts | 248° |
| 2026-05-05 20:49 | 41.43050 | 2.47087 | 2513 ft | 250 kts | 247° |
| 2026-05-05 20:49 | 41.42360 | 2.45060 | 2509 ft | 231 kts | 248° |
| 2026-05-05 20:50 | 41.41721 | 2.43180 | 2514 ft | 214 kts | 248° |
| 2026-05-05 20:50 | 41.41321 | 2.41999 | 2515 ft | 210 kts | 248° |
| 2026-05-05 20:50 | 41.40526 | 2.39651 | 2521 ft | 209 kts | 248° |
| 2026-05-05 20:50 | 41.39930 | 2.37891 | 2522 ft | 208 kts | 248° |
| 2026-05-05 20:51 | 41.39333 | 2.36125 | 2524 ft | 209 kts | 248° |
| 2026-05-05 20:51 | 41.38739 | 2.34371 | 2523 ft | 208 kts | 248° |
| 2026-05-05 20:51 | 41.38145 | 2.32617 | 2525 ft | 207 kts | 249° |
| 2026-05-05 20:51 | 41.37555 | 2.30880 | 2525 ft | 200 kts | 248° |
| 2026-05-05 20:52 | 41.36996 | 2.29242 | 2526 ft | 190 kts | 249° |
| 2026-05-05 20:52 | 41.36461 | 2.27672 | 2540 ft | 179 kts | 249° |
| 2026-05-05 20:52 | 41.35979 | 2.26264 | 2541 ft | 161 kts | 249° |
| 2026-05-05 20:52 | 41.35508 | 2.24871 | 2474 ft | 168 kts | 249° |
| 2026-05-05 20:53 | 41.35033 | 2.23465 | 2197 ft | 166 kts | 249° |
| 2026-05-05 20:53 | 41.34564 | 2.22083 | 1971 ft | 166 kts | 249° |
| 2026-05-05 20:53 | 41.34081 | 2.20662 | 1747 ft | 167 kts | 249° |
| 2026-05-05 20:53 | 41.33618 | 2.19305 | 1505 ft | 157 kts | 248° |
| 2026-05-05 20:54 | 41.33192 | 2.18057 | 1325 ft | 142 kts | 248° |
| 2026-05-05 20:54 | 41.32793 | 2.16885 | 1129 ft | 137 kts | 248° |
| 2026-05-05 20:54 | 41.32408 | 2.15755 | 950 ft | 133 kts | 248° |
| 2026-05-05 20:54 | 41.32020 | 2.14619 | 761 ft | 134 kts | 249° |
| 2026-05-05 20:55 | 41.31632 | 2.13479 | 576 ft | 135 kts | 249° |
| 2026-05-05 20:55 | 41.31235 | 2.12315 | 388 ft | 141 kts | 249° |
| 2026-05-05 20:55 | 41.30838 | 2.11132 | 240 ft | 140 kts | 250° |
| 2026-05-05 20:55 | 41.30589 | 2.10339 | 83 ft | 140 kts | 243° |
| 2026-05-05 20:56 | 41.30194 | 2.09412 | 5 ft | 88 kts | 248° |
| 2026-05-05 20:56 | 41.30016 | 2.08767 | 6 ft | 64 kts | 234° |
| 2026-05-05 20:56 | 41.29729 | 2.08440 | 3 ft | 37 kts | 221° |
| 2026-05-05 20:56 | 41.29620 | 2.08242 | 3 ft | 20 kts | 212° |
| 2026-05-05 20:57 | 41.29538 | 2.08280 | 3 ft | 11 kts | 148° |